createdAt,value
2023-09-17T00:03:26.201Z,22.84
2023-09-17T00:08:29.886Z,22.84
2023-09-17T00:13:33.391Z,22.83
2023-09-17T00:18:38.416Z,22.83
2023-09-17T00:23:41.935Z,22.83
2023-09-17T00:28:46.024Z,22.83
2023-09-17T00:33:51.079Z,22.82
2023-09-17T00:38:54.825Z,22.82
2023-09-17T00:43:58.334Z,22.82
2023-09-17T00:49:03.737Z,22.82
2023-09-17T00:54:07.478Z,22.82
2023-09-17T00:59:11.830Z,22.80
2023-09-17T01:04:18.070Z,22.80
2023-09-17T01:09:22.445Z,22.80
2023-09-17T01:14:26.053Z,22.81
2023-09-17T01:19:34.036Z,22.79
2023-09-17T01:24:42.728Z,22.80
2023-09-17T01:29:49.128Z,22.80
2023-09-17T01:34:54.456Z,22.78
2023-09-17T01:39:59.607Z,22.78
2023-09-17T01:45:07.173Z,22.78
2023-09-17T01:50:12.465Z,22.78
2023-09-17T01:55:15.969Z,22.78
2023-09-17T02:00:20.947Z,22.78
2023-09-17T02:05:26.535Z,22.78
2023-09-17T02:10:30.121Z,22.76
2023-09-17T02:15:35.051Z,22.75
2023-09-17T02:20:41.558Z,22.75
2023-09-17T02:25:45.302Z,22.75
2023-09-17T02:30:50.884Z,22.74
2023-09-17T02:35:54.396Z,22.75
2023-09-17T02:40:57.948Z,22.75
2023-09-17T02:46:02.828Z,22.74
2023-09-17T02:51:06.366Z,22.73
2023-09-17T02:56:09.825Z,22.73
2023-09-17T03:01:19.611Z,22.72
2023-09-17T03:06:23.457Z,22.72
2023-09-17T03:11:28.237Z,22.71
2023-09-17T03:16:35.012Z,22.70
2023-09-17T03:21:42.830Z,22.71
2023-09-17T03:26:46.405Z,22.70
2023-09-17T03:31:51.682Z,22.69
2023-09-17T03:36:55.339Z,22.69
2023-09-17T03:41:58.879Z,22.69
2023-09-17T03:47:04.875Z,22.69
2023-09-17T03:52:08.822Z,22.68
2023-09-17T03:57:12.332Z,22.68
2023-09-17T04:02:17.553Z,22.66
2023-09-17T04:07:21.064Z,22.67
2023-09-17T04:12:24.526Z,22.65
2023-09-17T04:17:30.170Z,22.65
2023-09-17T04:22:34.837Z,22.65
2023-09-17T04:27:40.064Z,22.65
2023-09-17T04:32:46.182Z,22.64
2023-09-17T04:37:51.062Z,22.62
2023-09-17T04:42:54.851Z,22.63
2023-09-17T04:47:59.704Z,22.62
2023-09-17T04:53:03.470Z,22.61
2023-09-17T04:58:06.969Z,22.60
2023-09-17T05:03:13.094Z,22.60
2023-09-17T05:08:18.352Z,22.59
2023-09-17T05:13:21.849Z,22.59
2023-09-17T05:18:26.798Z,22.58
2023-09-17T05:23:30.278Z,22.59
2023-09-17T05:28:33.894Z,22.58
2023-09-17T05:33:38.846Z,22.59
2023-09-17T05:38:42.516Z,22.57
2023-09-17T05:43:47.290Z,22.56
2023-09-17T05:48:52.220Z,22.55
2023-09-17T05:53:55.746Z,22.55
2023-09-17T05:58:59.244Z,22.56
2023-09-17T06:04:04.156Z,22.54
2023-09-17T06:09:07.712Z,22.55
2023-09-17T06:14:11.219Z,22.55
2023-09-17T06:19:16.217Z,22.55
2023-09-17T06:24:19.699Z,22.53
2023-09-17T06:29:23.297Z,22.54
2023-09-17T06:34:28.220Z,22.54
2023-09-17T06:39:31.746Z,22.54
2023-09-17T06:44:35.968Z,22.53
2023-09-17T06:49:40.892Z,22.53
2023-09-17T06:54:45.001Z,22.54
2023-09-17T06:59:48.695Z,22.55
2023-09-17T07:04:53.736Z,22.60
2023-09-17T07:09:58.091Z,22.67
2023-09-17T07:15:02.284Z,22.69
2023-09-17T07:20:08.491Z,22.71
2023-09-17T07:25:12.723Z,22.74
2023-09-17T07:30:16.456Z,22.74
2023-09-17T07:35:21.658Z,22.73
2023-09-17T07:40:25.205Z,22.72
2023-09-17T07:45:29.435Z,22.70
2023-09-17T07:50:34.338Z,22.69
2023-09-17T07:55:37.822Z,22.68
2023-09-17T08:00:41.345Z,22.65
2023-09-17T08:05:47.636Z,22.64
2023-09-17T08:10:51.728Z,22.66
2023-09-17T08:15:55.318Z,22.66
2023-09-17T08:21:00.201Z,22.65
2023-09-17T08:26:05.979Z,22.64
2023-09-17T08:31:09.827Z,22.63
2023-09-17T08:36:16.282Z,22.63
2023-09-17T08:41:21.316Z,22.61
2023-09-17T08:46:27.718Z,22.62
2023-09-17T08:51:36.829Z,22.60
2023-09-17T08:56:43.451Z,22.60
2023-09-17T09:01:49.862Z,22.62
2023-09-17T09:06:55.680Z,22.62
2023-09-17T09:12:00.431Z,22.27
2023-09-17T09:17:04.497Z,22.63
2023-09-17T09:22:09.468Z,22.66
2023-09-17T09:27:13.126Z,22.63
2023-09-17T09:32:16.741Z,22.62
2023-09-17T09:37:24.361Z,22.59
2023-09-17T09:42:29.542Z,22.58
2023-09-17T09:47:34.229Z,22.56
2023-09-17T09:52:39.349Z,22.55
2023-09-17T09:57:44.085Z,22.57
2023-09-17T10:02:47.957Z,22.61
2023-09-17T10:07:53.084Z,22.71
2023-09-17T10:12:56.732Z,22.78
2023-09-17T10:18:00.318Z,22.78
2023-09-17T10:23:07.415Z,22.84
2023-09-17T10:28:12.542Z,22.85
2023-09-17T10:33:17.591Z,22.88
2023-09-17T10:38:23.844Z,22.91
2023-09-17T10:43:27.657Z,22.97
2023-09-17T10:48:33.954Z,22.98
2023-09-17T10:53:38.973Z,23.00
2023-09-17T10:58:46.896Z,23.06
2023-09-17T11:03:53.280Z,23.07
2023-09-17T11:08:58.861Z,23.03
2023-09-17T11:14:03.209Z,23.04
2023-09-17T11:19:08.686Z,23.05
2023-09-17T11:24:14.553Z,23.08
2023-09-17T11:29:18.086Z,23.01
2023-09-17T11:34:23.153Z,23.04
2023-09-17T11:39:28.130Z,22.94
2023-09-17T11:44:33.103Z,22.90
2023-09-17T11:49:36.935Z,22.84
2023-09-17T11:54:50.785Z,22.82
2023-09-17T11:59:55.923Z,22.82
2023-09-17T12:05:01.375Z,22.83
2023-09-17T12:10:09.072Z,22.82
2023-09-17T12:15:12.711Z,22.83
2023-09-17T12:20:32.455Z,22.83
2023-09-17T12:25:46.015Z,22.84
2023-09-17T12:30:50.320Z,22.83
2023-09-17T12:35:54.345Z,22.83
2023-09-17T12:40:59.221Z,22.84
2023-09-17T12:46:03.111Z,22.85
2023-09-17T12:51:07.429Z,22.84
2023-09-17T12:56:13.125Z,22.84
2023-09-17T13:01:17.671Z,22.85
2023-09-17T13:06:21.503Z,22.85
2023-09-17T13:11:28.318Z,22.85
2023-09-17T13:16:32.064Z,22.85
2023-09-17T13:21:35.580Z,22.84
2023-09-17T13:26:40.554Z,22.85
2023-09-17T13:31:44.131Z,22.85
2023-09-17T13:36:47.651Z,22.84
2023-09-17T13:41:53.424Z,22.85
2023-09-17T13:46:57.335Z,22.85
2023-09-17T13:52:00.948Z,22.85
2023-09-17T13:57:07.027Z,22.84
2023-09-17T14:02:10.660Z,22.84
2023-09-17T14:07:14.227Z,22.83
2023-09-17T14:12:19.091Z,22.84
2023-09-17T14:17:22.629Z,22.83
2023-09-17T14:22:26.249Z,22.84
2023-09-17T14:27:31.153Z,22.84
2023-09-17T14:32:34.844Z,22.83
2023-09-17T14:37:38.418Z,22.84
2023-09-17T14:42:43.290Z,22.83
2023-09-17T14:47:46.846Z,22.83
2023-09-17T14:52:50.400Z,22.83
2023-09-17T14:57:55.416Z,22.82
2023-09-17T15:02:59.204Z,22.82
2023-09-17T15:08:03.826Z,22.82
2023-09-17T15:13:10.900Z,22.82
2023-09-17T15:18:14.506Z,22.81
2023-09-17T15:23:18.042Z,22.82
2023-09-17T15:28:23.932Z,22.82
2023-09-17T15:33:30.500Z,22.81
2023-09-17T15:38:34.068Z,22.83
2023-09-17T15:43:39.624Z,22.82
2023-09-17T15:48:43.828Z,22.82
2023-09-17T15:53:47.307Z,22.82
2023-09-17T15:58:52.477Z,22.82
2023-09-17T16:03:56.224Z,22.81
2023-09-17T16:09:00.573Z,22.82
2023-09-17T16:14:05.573Z,22.81
2023-09-17T16:19:09.135Z,22.80
2023-09-17T16:24:12.614Z,22.80
2023-09-17T16:29:17.535Z,22.81
2023-09-17T16:34:21.057Z,22.80
2023-09-17T16:39:24.580Z,22.81
2023-09-17T16:44:30.252Z,22.80
2023-09-17T16:49:33.790Z,22.80
2023-09-17T16:54:37.266Z,22.78
2023-09-17T16:59:42.238Z,22.79
2023-09-17T17:04:47.161Z,22.78
2023-09-17T17:09:50.669Z,22.76
2023-09-17T17:14:55.851Z,22.78
2023-09-17T17:19:59.346Z,22.80
2023-09-17T17:25:02.852Z,22.79
2023-09-17T17:30:11.668Z,22.80
2023-09-17T17:35:18.080Z,22.79
2023-09-17T17:40:23.888Z,22.79
2023-09-17T17:45:29.618Z,22.79
2023-09-17T17:50:33.986Z,22.78
2023-09-17T17:55:37.945Z,22.77
2023-09-17T18:00:43.853Z,22.77
2023-09-17T18:05:47.385Z,22.76
2023-09-17T18:10:50.928Z,22.76
2023-09-17T18:15:56.005Z,22.75
2023-09-17T18:20:59.474Z,22.76
2023-09-17T18:26:03.901Z,22.75
2023-09-17T18:31:10.245Z,22.75
2023-09-17T18:36:13.841Z,22.75
2023-09-17T18:41:17.502Z,22.73
2023-09-17T18:46:22.508Z,22.75
2023-09-17T18:51:26.046Z,22.74
2023-09-17T18:56:29.621Z,22.74
2023-09-17T19:01:34.677Z,22.74
2023-09-17T19:06:38.584Z,22.74
2023-09-17T19:11:42.101Z,22.74
2023-09-17T19:16:47.330Z,22.72
2023-09-17T19:21:50.894Z,22.73
2023-09-17T19:26:54.466Z,22.75
2023-09-17T19:31:59.522Z,22.73
2023-09-17T19:37:03.102Z,22.72
2023-09-17T19:42:08.696Z,22.72
2023-09-17T19:47:14.418Z,22.71
2023-09-17T19:52:18.024Z,22.72
2023-09-17T19:57:21.651Z,22.71
2023-09-17T20:02:27.329Z,22.71
2023-09-17T20:07:32.472Z,22.72
2023-09-17T20:12:36.015Z,22.70
2023-09-17T20:17:41.337Z,22.72
2023-09-17T20:22:46.210Z,22.70
2023-09-17T20:27:59.751Z,22.70
2023-09-17T20:33:04.800Z,22.70
2023-09-17T20:38:08.633Z,22.69
2023-09-17T20:43:12.266Z,22.69
2023-09-17T20:48:18.957Z,22.70
2023-09-17T20:53:22.523Z,22.68
2023-09-17T20:58:26.231Z,22.68
2023-09-17T21:03:32.026Z,22.69
2023-09-17T21:08:35.752Z,22.67
2023-09-17T21:13:39.384Z,22.67
2023-09-17T21:18:44.277Z,22.67
2023-09-17T21:23:47.769Z,22.67
2023-09-17T21:28:52.223Z,22.66
2023-09-17T21:33:57.389Z,22.66
2023-09-17T21:39:00.918Z,22.64
2023-09-17T21:44:05.506Z,22.64
2023-09-17T21:49:10.921Z,22.64
2023-09-17T21:54:15.200Z,22.64
2023-09-17T21:59:18.827Z,22.64
2023-09-17T22:04:24.201Z,22.63
2023-09-17T22:09:27.868Z,22.63
2023-09-17T22:14:31.401Z,22.62
2023-09-17T22:19:38.253Z,22.63
2023-09-17T22:24:42.574Z,22.62
2023-09-17T22:29:46.046Z,22.63
2023-09-17T22:34:50.989Z,22.62
2023-09-17T22:39:54.487Z,22.62
2023-09-17T22:44:58.733Z,22.62
2023-09-17T22:50:05.063Z,22.61
2023-09-17T22:55:09.284Z,22.61
2023-09-17T23:00:15.884Z,22.61
2023-09-17T23:05:21.040Z,22.60
2023-09-17T23:10:25.062Z,22.60
2023-09-17T23:15:29.409Z,22.59
2023-09-17T23:20:34.653Z,22.60
2023-09-17T23:25:38.149Z,22.58
2023-09-17T23:30:42.049Z,22.56
2023-09-17T23:35:48.943Z,22.57
2023-09-17T23:40:52.575Z,22.60
2023-09-17T23:45:56.120Z,22.57
2023-09-17T23:51:03.104Z,22.58
2023-09-17T23:56:06.671Z,22.57
